Terminal Aerodrome Forecast
Issued by NWS Bismarck, ND

Home | Current Version | Previous Version | Text Only | Print | Product List | Glossary Off
Versions: 1 2 3 4 5 6 7 8 9 10 11 12 13

000
FTUS43 KBIS 260500
TAFISN
TAF
KISN 260537Z 2606/2706 34011KT P6SM SKC
     FM261000 32007KT P6SM SKC
     FM261600 31006KT P6SM SKC
     FM270000 VRB03KT P6SM SKC=

USA.gov is the U.S. government's official web portal to all federal, state and local government web resources and services.